Terminal Aerodrome Forecast
Issued by NWS Grand Forks, ND

Home | Current Version | Previous Version | Graphics & Text | Print | Product List | Glossary On
Versions: 1 2 3 4 5 6 7 8 9 10 11 12 13 14 15 16 17
000
FTUS43 KFGF 231120
TAFFAR
TAF
KFAR 231120Z 2312/2412 12012G20KT P6SM BKN250
     FM232000 14011KT P6SM BKN090
      TEMPO 2320/2322 4SM +TSRA OVC040CB
     FM232200 14010KT P6SM VCTS BKN090CB
     FM232300 19009KT P6SM VCTS BKN090CB
     FM240100 22008KT P6SM SCT250
     FM241100 28008KT P6SM FEW250=

USA.gov is the U.S. government's official web portal to all federal, state and local government web resources and services.